sensor_id;sensor_type;location;lat;lon;timestamp;noise_LAeq;noise_LA_min;noise_LA_max;noise_LA01;noise_LA95
76339;Laerm;26644;50.248;19.032;2023-02-01T00:00:12;48.80;43.50;61.49;;
76339;Laerm;26644;50.248;19.032;2023-02-01T00:03:19;51.03;45.78;64.32;;
76339;Laerm;26644;50.248;19.032;2023-02-01T00:06:24;51.79;45.79;67.30;;
76339;Laerm;26644;50.248;19.032;2023-02-01T00:09:30;51.56;45.67;72.69;;
76339;Laerm;26644;50.248;19.032;2023-02-01T00:12:36;50.70;44.16;70.83;;
76339;Laerm;26644;50.248;19.032;2023-02-01T00:15:44;50.66;43.83;61.59;;
76339;Laerm;26644;50.248;19.032;2023-02-01T00:18:55;51.19;44.63;64.31;;
76339;Laerm;26644;50.248;19.032;2023-02-01T00:22:02;51.87;45.62;74.45;;
76339;Laerm;26644;50.248;19.032;2023-02-01T00:25:08;50.86;45.18;65.96;;
76339;Laerm;26644;50.248;19.032;2023-02-01T00:28:14;49.95;44.95;64.07;;
76339;Laerm;26644;50.248;19.032;2023-02-01T00:31:22;51.13;45.96;76.36;;
76339;Laerm;26644;50.248;19.032;2023-02-01T00:34:28;50.93;43.65;63.37;;
76339;Laerm;26644;50.248;19.032;2023-02-01T00:37:33;49.03;43.43;58.80;;
76339;Laerm;26644;50.248;19.032;2023-02-01T00:40:39;50.47;44.31;65.04;;
76339;Laerm;26644;50.248;19.032;2023-02-01T00:43:45;49.91;44.18;62.17;;
76339;Laerm;26644;50.248;19.032;2023-02-01T00:46:53;50.93;45.21;63.04;;
76339;Laerm;26644;50.248;19.032;2023-02-01T00:49:58;51.23;44.98;68.00;;
76339;Laerm;26644;50.248;19.032;2023-02-01T00:53:04;52.72;46.36;61.98;;
76339;Laerm;26644;50.248;19.032;2023-02-01T00:56:09;50.80;44.47;73.20;;
76339;Laerm;26644;50.248;19.032;2023-02-01T00:59:16;49.72;43.62;60.70;;
76339;Laerm;26644;50.248;19.032;2023-02-01T01:02:26;57.81;47.10;78.03;;
76339;Laerm;26644;50.248;19.032;2023-02-01T01:05:32;55.16;46.30;76.70;;
76339;Laerm;26644;50.248;19.032;2023-02-01T01:08:39;52.25;48.23;61.87;;
76339;Laerm;26644;50.248;19.032;2023-02-01T01:11:45;52.36;47.68;74.32;;
76339;Laerm;26644;50.248;19.032;2023-02-01T01:14:52;50.15;45.11;68.91;;
76339;Laerm;26644;50.248;19.032;2023-02-01T01:18:01;52.54;45.44;63.35;;
76339;Laerm;26644;50.248;19.032;2023-02-01T01:21:08;51.72;45.16;66.47;;
76339;Laerm;26644;50.248;19.032;2023-02-01T01:24:15;53.66;45.28;64.78;;
76339;Laerm;26644;50.248;19.032;2023-02-01T01:27:20;51.13;46.10;57.33;;
76339;Laerm;26644;50.248;19.032;2023-02-01T01:30:26;52.38;47.21;62.50;;
76339;Laerm;26644;50.248;19.032;2023-02-01T01:33:34;50.71;44.94;58.32;;
76339;Laerm;26644;50.248;19.032;2023-02-01T01:36:40;50.40;45.04;64.03;;
76339;Laerm;26644;50.248;19.032;2023-02-01T01:39:45;50.90;44.17;60.17;;
76339;Laerm;26644;50.248;19.032;2023-02-01T01:42:51;51.49;45.09;60.96;;
76339;Laerm;26644;50.248;19.032;2023-02-01T01:45:57;51.49;44.27;69.51;;
76339;Laerm;26644;50.248;19.032;2023-02-01T01:49:13;52.11;45.99;67.55;;
76339;Laerm;26644;50.248;19.032;2023-02-01T01:52:20;49.56;44.53;64.59;;
76339;Laerm;26644;50.248;19.032;2023-02-01T01:55:32;50.11;45.38;59.71;;
76339;Laerm;26644;50.248;19.032;2023-02-01T01:58:38;49.30;43.23;58.37;;
76339;Laerm;26644;50.248;19.032;2023-02-01T02:01:46;50.68;45.13;59.67;;
76339;Laerm;26644;50.248;19.032;2023-02-01T02:04:54;49.02;42.00;58.00;;
76339;Laerm;26644;50.248;19.032;2023-02-01T02:08:01;50.07;43.19;65.78;;
76339;Laerm;26644;50.248;19.032;2023-02-01T02:11:07;52.01;45.99;57.56;;
76339;Laerm;26644;50.248;19.032;2023-02-01T02:14:17;51.40;47.30;56.84;;
76339;Laerm;26644;50.248;19.032;2023-02-01T02:17:38;50.30;44.43;58.22;;
76339;Laerm;26644;50.248;19.032;2023-02-01T02:21:10;50.35;45.10;58.36;;
76339;Laerm;26644;50.248;19.032;2023-02-01T02:24:56;51.42;45.08;60.52;;
76339;Laerm;26644;50.248;19.032;2023-02-01T02:28:47;50.15;45.35;57.62;;
76339;Laerm;26644;50.248;19.032;2023-02-01T02:36:06;50.59;46.19;56.36;;
76339;Laerm;26644;50.248;19.032;2023-02-01T02:39:25;51.30;46.45;56.73;;
76339;Laerm;26644;50.248;19.032;2023-02-01T02:42:45;51.75;44.46;58.74;;
76339;Laerm;26644;50.248;19.032;2023-02-01T02:46:19;53.01;44.38;66.42;;
76339;Laerm;26644;50.248;19.032;2023-02-01T02:49:49;50.49;44.41;62.32;;
76339;Laerm;26644;50.248;19.032;2023-02-01T02:53:28;51.00;46.47;56.67;;
76339;Laerm;26644;50.248;19.032;2023-02-01T02:56:52;51.97;45.07;60.80;;
76339;Laerm;26644;50.248;19.032;2023-02-01T03:00:17;49.67;44.81;54.90;;
76339;Laerm;26644;50.248;19.032;2023-02-01T03:03:37;50.82;45.65;62.96;;
76339;Laerm;26644;50.248;19.032;2023-02-01T03:06:55;49.80;44.58;55.14;;
76339;Laerm;26644;50.248;19.032;2023-02-01T03:10:17;51.30;45.06;60.00;;
76339;Laerm;26644;50.248;19.032;2023-02-01T03:13:36;50.11;43.95;55.47;;
76339;Laerm;26644;50.248;19.032;2023-02-01T03:16:53;49.32;45.08;54.09;;
76339;Laerm;26644;50.248;19.032;2023-02-01T03:20:05;51.11;47.73;55.75;;
76339;Laerm;26644;50.248;19.032;2023-02-01T03:23:19;50.86;45.80;55.67;;
76339;Laerm;26644;50.248;19.032;2023-02-01T03:26:36;51.84;45.80;57.72;;
76339;Laerm;26644;50.248;19.032;2023-02-01T03:29:50;51.55;47.26;55.77;;
76339;Laerm;26644;50.248;19.032;2023-02-01T03:33:02;52.45;46.48;58.17;;
76339;Laerm;26644;50.248;19.032;2023-02-01T03:36:27;51.85;47.32;59.95;;
76339;Laerm;26644;50.248;19.032;2023-02-01T03:39:43;52.75;48.22;60.69;;
76339;Laerm;26644;50.248;19.032;2023-02-01T03:42:59;51.53;45.12;57.12;;
76339;Laerm;26644;50.248;19.032;2023-02-01T03:46:18;50.16;46.01;55.19;;
76339;Laerm;26644;50.248;19.032;2023-02-01T03:49:31;52.13;48.61;61.56;;
76339;Laerm;26644;50.248;19.032;2023-02-01T03:52:46;52.81;49.01;58.30;;
76339;Laerm;26644;50.248;19.032;2023-02-01T03:55:55;53.73;48.83;58.29;;
76339;Laerm;26644;50.248;19.032;2023-02-01T03:59:03;53.42;48.85;59.67;;
76339;Laerm;26644;50.248;19.032;2023-02-01T04:02:12;51.55;47.55;56.50;;
76339;Laerm;26644;50.248;19.032;2023-02-01T04:05:17;52.40;47.25;58.56;;
76339;Laerm;26644;50.248;19.032;2023-02-01T04:08:36;54.41;50.20;64.97;;
76339;Laerm;26644;50.248;19.032;2023-02-01T04:11:41;52.98;49.28;57.00;;
76339;Laerm;26644;50.248;19.032;2023-02-01T04:14:50;53.09;49.13;57.74;;
76339;Laerm;26644;50.248;19.032;2023-02-01T04:17:55;54.50;49.70;58.76;;
76339;Laerm;26644;50.248;19.032;2023-02-01T04:21:01;53.98;49.91;61.27;;
76339;Laerm;26644;50.248;19.032;2023-02-01T04:24:07;54.67;51.35;58.71;;
76339;Laerm;26644;50.248;19.032;2023-02-01T04:27:13;54.22;48.89;59.56;;
76339;Laerm;26644;50.248;19.032;2023-02-01T04:30:21;53.05;49.14;56.66;;
76339;Laerm;26644;50.248;19.032;2023-02-01T04:33:27;54.15;50.34;59.96;;
76339;Laerm;26644;50.248;19.032;2023-02-01T04:36:32;55.54;51.27;66.56;;
76339;Laerm;26644;50.248;19.032;2023-02-01T04:39:38;54.48;50.82;62.15;;
76339;Laerm;26644;50.248;19.032;2023-02-01T04:42:43;55.21;52.00;61.39;;
76339;Laerm;26644;50.248;19.032;2023-02-01T04:45:52;55.63;51.86;60.11;;
76339;Laerm;26644;50.248;19.032;2023-02-01T04:48:57;55.72;51.70;62.93;;
76339;Laerm;26644;50.248;19.032;2023-02-01T04:52:04;54.62;50.97;57.73;;
76339;Laerm;26644;50.248;19.032;2023-02-01T04:55:09;54.57;51.46;57.70;;
76339;Laerm;26644;50.248;19.032;2023-02-01T04:58:16;55.30;51.12;58.78;;
76339;Laerm;26644;50.248;19.032;2023-02-01T05:01:24;55.27;51.61;59.84;;
76339;Laerm;26644;50.248;19.032;2023-02-01T05:04:29;54.58;51.27;57.66;;
76339;Laerm;26644;50.248;19.032;2023-02-01T05:07:34;54.40;50.64;58.02;;
76339;Laerm;26644;50.248;19.032;2023-02-01T05:10:40;55.17;52.26;63.35;;
76339;Laerm;26644;50.248;19.032;2023-02-01T05:13:45;55.07;51.55;58.78;;
76339;Laerm;26644;50.248;19.032;2023-02-01T05:16:54;55.29;51.58;59.61;;
76339;Laerm;26644;50.248;19.032;2023-02-01T05:19:59;55.52;52.57;62.19;;
76339;Laerm;26644;50.248;19.032;2023-02-01T05:23:05;56.94;52.76;67.16;;
76339;Laerm;26644;50.248;19.032;2023-02-01T05:26:10;55.95;52.35;59.07;;
76339;Laerm;26644;50.248;19.032;2023-02-01T05:29:19;56.48;52.68;60.19;;
76339;Laerm;26644;50.248;19.032;2023-02-01T05:32:27;56.26;52.32;59.58;;
76339;Laerm;26644;50.248;19.032;2023-02-01T05:35:32;56.46;53.61;66.96;;
76339;Laerm;26644;50.248;19.032;2023-02-01T05:38:37;57.15;54.07;62.94;;
76339;Laerm;26644;50.248;19.032;2023-02-01T05:41:43;56.73;53.16;60.28;;
76339;Laerm;26644;50.248;19.032;2023-02-01T05:44:48;56.74;53.88;61.32;;
76339;Laerm;26644;50.248;19.032;2023-02-01T05:47:56;57.37;54.38;60.93;;
76339;Laerm;26644;50.248;19.032;2023-02-01T05:51:01;57.22;54.25;61.42;;
76339;Laerm;26644;50.248;19.032;2023-02-01T05:54:09;57.19;54.10;62.00;;
76339;Laerm;26644;50.248;19.032;2023-02-01T05:57:15;56.94;53.94;60.74;;
76339;Laerm;26644;50.248;19.032;2023-02-01T06:00:24;57.11;53.67;61.79;;
76339;Laerm;26644;50.248;19.032;2023-02-01T06:03:32;57.56;54.31;66.27;;
76339;Laerm;26644;50.248;19.032;2023-02-01T06:06:37;57.13;54.31;60.76;;
76339;Laerm;26644;50.248;19.032;2023-02-01T06:09:43;57.40;54.27;63.61;;
76339;Laerm;26644;50.248;19.032;2023-02-01T06:12:49;56.92;53.24;67.46;;
76339;Laerm;26644;50.248;19.032;2023-02-01T06:15:54;57.15;54.09;64.99;;
76339;Laerm;26644;50.248;19.032;2023-02-01T06:19:04;57.08;53.88;63.60;;
76339;Laerm;26644;50.248;19.032;2023-02-01T06:22:09;57.19;53.77;62.70;;
76339;Laerm;26644;50.248;19.032;2023-02-01T06:25:14;57.18;53.79;62.13;;
76339;Laerm;26644;50.248;19.032;2023-02-01T06:28:20;57.74;54.67;63.20;;
76339;Laerm;26644;50.248;19.032;2023-02-01T06:31:26;58.87;53.69;74.14;;
76339;Laerm;26644;50.248;19.032;2023-02-01T06:34:34;62.01;54.36;80.49;;
76339;Laerm;26644;50.248;19.032;2023-02-01T06:37:42;60.00;53.78;80.12;;
76339;Laerm;26644;50.248;19.032;2023-02-01T06:40:53;57.89;53.34;74.28;;
76339;Laerm;26644;50.248;19.032;2023-02-01T06:43:59;57.84;54.63;63.28;;
76339;Laerm;26644;50.248;19.032;2023-02-01T06:47:05;57.60;54.39;63.16;;
76339;Laerm;26644;50.248;19.032;2023-02-01T06:50:13;58.16;55.11;68.61;;
76339;Laerm;26644;50.248;19.032;2023-02-01T06:53:18;58.10;54.78;65.44;;
76339;Laerm;26644;50.248;19.032;2023-02-01T06:56:25;58.23;54.49;65.72;;
76339;Laerm;26644;50.248;19.032;2023-02-01T06:59:30;58.37;55.32;65.03;;
76339;Laerm;26644;50.248;19.032;2023-02-01T07:02:36;58.29;55.12;70.31;;
76339;Laerm;26644;50.248;19.032;2023-02-01T07:05:43;58.08;54.48;69.03;;
76339;Laerm;26644;50.248;19.032;2023-02-01T07:08:50;57.73;53.04;72.02;;
76339;Laerm;26644;50.248;19.032;2023-02-01T07:11:57;57.59;53.87;79.95;;
76339;Laerm;26644;50.248;19.032;2023-02-01T07:15:05;56.31;52.83;65.67;;
76339;Laerm;26644;50.248;19.032;2023-02-01T07:18:10;55.70;52.30;64.61;;
76339;Laerm;26644;50.248;19.032;2023-02-01T07:21:19;56.43;52.93;62.80;;
76339;Laerm;26644;50.248;19.032;2023-02-01T07:24:24;55.56;52.89;65.25;;
76339;Laerm;26644;50.248;19.032;2023-02-01T07:27:30;59.45;52.54;70.50;;
76339;Laerm;26644;50.248;19.032;2023-02-01T07:30:35;55.65;51.43;64.43;;
76339;Laerm;26644;50.248;19.032;2023-02-01T07:33:42;56.14;52.85;66.76;;
76339;Laerm;26644;50.248;19.032;2023-02-01T07:36:49;56.04;52.43;69.38;;
76339;Laerm;26644;50.248;19.032;2023-02-01T07:39:55;55.21;51.29;67.41;;
76339;Laerm;26644;50.248;19.032;2023-02-01T07:43:00;55.70;52.55;62.01;;
76339;Laerm;26644;50.248;19.032;2023-02-01T07:46:11;55.65;52.43;65.96;;
76339;Laerm;26644;50.248;19.032;2023-02-01T07:49:17;55.76;51.96;68.76;;
76339;Laerm;26644;50.248;19.032;2023-02-01T07:52:28;55.71;51.73;65.75;;
76339;Laerm;26644;50.248;19.032;2023-02-01T07:55:33;55.46;52.57;62.29;;
76339;Laerm;26644;50.248;19.032;2023-02-01T07:58:39;55.29;51.35;67.14;;
76339;Laerm;26644;50.248;19.032;2023-02-01T08:01:44;55.46;51.89;69.72;;
76339;Laerm;26644;50.248;19.032;2023-02-01T08:04:50;54.48;51.04;64.09;;
76339;Laerm;26644;50.248;19.032;2023-02-01T08:07:57;55.43;52.20;66.64;;
76339;Laerm;26644;50.248;19.032;2023-02-01T08:11:06;55.64;52.44;58.64;;
76339;Laerm;26644;50.248;19.032;2023-02-01T08:14:11;55.71;52.77;59.02;;
76339;Laerm;26644;50.248;19.032;2023-02-01T08:17:17;55.63;52.32;61.24;;
76339;Laerm;26644;50.248;19.032;2023-02-01T08:20:22;56.32;53.07;63.09;;
76339;Laerm;26644;50.248;19.032;2023-02-01T08:23:32;57.15;53.44;63.94;;
76339;Laerm;26644;50.248;19.032;2023-02-01T08:26:37;57.24;54.08;63.39;;
76339;Laerm;26644;50.248;19.032;2023-02-01T08:29:43;57.43;53.87;66.61;;
76339;Laerm;26644;50.248;19.032;2023-02-01T08:32:48;57.24;53.76;65.08;;
76339;Laerm;26644;50.248;19.032;2023-02-01T08:35:54;57.09;53.97;65.16;;
76339;Laerm;26644;50.248;19.032;2023-02-01T08:39:02;57.03;53.20;65.25;;
76339;Laerm;26644;50.248;19.032;2023-02-01T08:42:11;58.51;54.17;78.36;;
76339;Laerm;26644;50.248;19.032;2023-02-01T08:45:30;56.63;52.84;61.94;;
76339;Laerm;26644;50.248;19.032;2023-02-01T08:48:36;56.99;52.73;60.49;;
76339;Laerm;26644;50.248;19.032;2023-02-01T08:51:42;57.54;53.50;69.75;;
76339;Laerm;26644;50.248;19.032;2023-02-01T08:54:50;57.63;54.08;68.81;;
76339;Laerm;26644;50.248;19.032;2023-02-01T08:57:56;57.59;54.44;65.03;;
76339;Laerm;26644;50.248;19.032;2023-02-01T09:01:03;57.74;54.04;70.04;;
76339;Laerm;26644;50.248;19.032;2023-02-01T09:04:08;57.98;54.22;63.44;;
76339;Laerm;26644;50.248;19.032;2023-02-01T09:07:14;57.61;54.09;70.77;;
76339;Laerm;26644;50.248;19.032;2023-02-01T09:10:22;57.26;53.49;67.53;;
76339;Laerm;26644;50.248;19.032;2023-02-01T09:13:29;56.69;52.91;64.95;;
76339;Laerm;26644;50.248;19.032;2023-02-01T09:16:35;56.71;52.25;69.48;;
76339;Laerm;26644;50.248;19.032;2023-02-01T09:19:41;57.25;53.85;63.88;;
76339;Laerm;26644;50.248;19.032;2023-02-01T09:22:46;56.87;52.86;62.67;;
76339;Laerm;26644;50.248;19.032;2023-02-01T09:25:54;57.69;53.99;69.36;;
76339;Laerm;26644;50.248;19.032;2023-02-01T09:29:03;57.25;53.64;65.08;;
76339;Laerm;26644;50.248;19.032;2023-02-01T09:32:09;57.49;53.75;67.68;;
76339;Laerm;26644;50.248;19.032;2023-02-01T09:35:14;57.27;53.75;62.81;;
76339;Laerm;26644;50.248;19.032;2023-02-01T09:38:20;58.10;53.25;74.15;;
76339;Laerm;26644;50.248;19.032;2023-02-01T09:41:45;57.13;53.26;67.88;;
76339;Laerm;26644;50.248;19.032;2023-02-01T09:45:13;56.47;52.05;65.48;;
76339;Laerm;26644;50.248;19.032;2023-02-01T09:48:29;56.97;52.50;65.74;;
76339;Laerm;26644;50.248;19.032;2023-02-01T09:51:42;56.90;52.66;63.28;;
76339;Laerm;26644;50.248;19.032;2023-02-01T09:54:57;57.21;53.45;75.72;;
76339;Laerm;26644;50.248;19.032;2023-02-01T09:58:17;56.54;52.28;61.00;;
76339;Laerm;26644;50.248;19.032;2023-02-01T10:01:27;57.34;53.19;71.16;;
76339;Laerm;26644;50.248;19.032;2023-02-01T10:04:34;56.45;53.20;66.01;;
76339;Laerm;26644;50.248;19.032;2023-02-01T10:07:52;56.69;53.29;69.14;;
76339;Laerm;26644;50.248;19.032;2023-02-01T10:11:17;56.18;52.71;59.83;;
76339;Laerm;26644;50.248;19.032;2023-02-01T10:14:54;56.44;52.79;62.73;;
76339;Laerm;26644;50.248;19.032;2023-02-01T10:18:30;57.66;53.24;87.87;;
76339;Laerm;26644;50.248;19.032;2023-02-01T10:21:54;56.75;52.55;69.43;;
76339;Laerm;26644;50.248;19.032;2023-02-01T10:25:16;56.54;53.18;62.40;;
76339;Laerm;26644;50.248;19.032;2023-02-01T10:28:25;56.22;51.51;63.42;;
76339;Laerm;26644;50.248;19.032;2023-02-01T10:31:38;55.91;52.09;67.44;;
76339;Laerm;26644;50.248;19.032;2023-02-01T10:34:50;56.43;52.88;64.50;;
76339;Laerm;26644;50.248;19.032;2023-02-01T10:38:01;55.54;51.21;59.84;;
76339;Laerm;26644;50.248;19.032;2023-02-01T10:41:15;55.81;52.67;64.69;;
76339;Laerm;26644;50.248;19.032;2023-02-01T10:44:27;56.72;53.29;71.60;;
76339;Laerm;26644;50.248;19.032;2023-02-01T10:47:36;58.77;53.67;75.58;;
76339;Laerm;26644;50.248;19.032;2023-02-01T10:50:51;57.34;53.28;71.73;;
76339;Laerm;26644;50.248;19.032;2023-02-01T10:54:10;57.11;53.14;64.33;;
76339;Laerm;26644;50.248;19.032;2023-02-01T10:57:25;56.48;52.92;65.40;;
76339;Laerm;26644;50.248;19.032;2023-02-01T11:00:46;57.20;53.29;68.02;;
76339;Laerm;26644;50.248;19.032;2023-02-01T11:03:57;58.12;53.33;69.93;;
76339;Laerm;26644;50.248;19.032;2023-02-01T11:07:14;57.38;53.97;67.97;;
76339;Laerm;26644;50.248;19.032;2023-02-01T11:10:41;58.93;53.54;75.38;;
76339;Laerm;26644;50.248;19.032;2023-02-01T11:13:57;59.28;54.66;74.75;;
76339;Laerm;26644;50.248;19.032;2023-02-01T11:17:24;58.45;54.59;74.08;;
76339;Laerm;26644;50.248;19.032;2023-02-01T11:20:40;57.85;53.75;74.43;;
76339;Laerm;26644;50.248;19.032;2023-02-01T11:23:48;57.41;53.71;69.26;;
76339;Laerm;26644;50.248;19.032;2023-02-01T11:26:57;58.24;53.54;64.55;;
76339;Laerm;26644;50.248;19.032;2023-02-01T11:30:06;58.90;54.10;70.04;;
76339;Laerm;26644;50.248;19.032;2023-02-01T11:33:18;59.35;55.00;78.29;;
76339;Laerm;26644;50.248;19.032;2023-02-01T11:36:33;57.81;54.28;64.57;;
76339;Laerm;26644;50.248;19.032;2023-02-01T11:39:42;58.08;54.34;70.10;;
76339;Laerm;26644;50.248;19.032;2023-02-01T11:42:56;57.93;53.72;67.68;;
76339;Laerm;26644;50.248;19.032;2023-02-01T11:46:03;58.09;54.56;64.38;;
76339;Laerm;26644;50.248;19.032;2023-02-01T11:49:27;58.17;54.24;67.51;;
76339;Laerm;26644;50.248;19.032;2023-02-01T11:53:02;58.52;54.64;70.07;;
76339;Laerm;26644;50.248;19.032;2023-02-01T11:56:23;57.57;54.21;71.43;;
76339;Laerm;26644;50.248;19.032;2023-02-01T11:59:53;57.57;53.80;66.89;;
76339;Laerm;26644;50.248;19.032;2023-02-01T12:03:46;56.87;53.67;64.72;;
76339;Laerm;26644;50.248;19.032;2023-02-01T12:07:04;57.05;53.21;67.00;;
76339;Laerm;26644;50.248;19.032;2023-02-01T12:10:33;57.14;53.51;65.66;;
76339;Laerm;26644;50.248;19.032;2023-02-01T12:13:57;57.47;53.75;64.36;;
76339;Laerm;26644;50.248;19.032;2023-02-01T12:17:44;57.58;53.39;64.82;;
76339;Laerm;26644;50.248;19.032;2023-02-01T12:21:10;57.16;53.64;63.80;;
76339;Laerm;26644;50.248;19.032;2023-02-01T12:25:00;57.50;53.38;63.64;;
76339;Laerm;26644;50.248;19.032;2023-02-01T12:28:46;57.33;53.63;68.51;;
76339;Laerm;26644;50.248;19.032;2023-02-01T12:32:11;57.50;53.62;63.34;;
76339;Laerm;26644;50.248;19.032;2023-02-01T12:35:50;57.37;53.20;71.13;;
76339;Laerm;26644;50.248;19.032;2023-02-01T12:39:14;56.66;53.81;64.86;;
76339;Laerm;26644;50.248;19.032;2023-02-01T12:42:31;57.02;54.01;70.09;;
76339;Laerm;26644;50.248;19.032;2023-02-01T12:45:47;57.41;53.87;61.73;;
76339;Laerm;26644;50.248;19.032;2023-02-01T12:49:00;57.80;54.45;64.93;;
76339;Laerm;26644;50.248;19.032;2023-02-01T12:52:18;57.88;53.59;63.79;;
76339;Laerm;26644;50.248;19.032;2023-02-01T12:55:35;58.11;53.87;69.68;;
76339;Laerm;26644;50.248;19.032;2023-02-01T12:58:49;57.27;54.17;63.32;;
76339;Laerm;26644;50.248;19.032;2023-02-01T13:02:11;57.67;54.58;67.80;;
76339;Laerm;26644;50.248;19.032;2023-02-01T13:05:21;57.18;53.08;60.84;;
76339;Laerm;26644;50.248;19.032;2023-02-01T13:08:43;57.46;54.06;64.87;;
76339;Laerm;26644;50.248;19.032;2023-02-01T13:11:57;57.13;53.87;67.04;;
76339;Laerm;26644;50.248;19.032;2023-02-01T13:15:12;57.30;53.43;61.82;;
76339;Laerm;26644;50.248;19.032;2023-02-01T13:18:41;57.19;54.12;64.20;;
76339;Laerm;26644;50.248;19.032;2023-02-01T13:21:53;56.76;53.96;65.45;;
76339;Laerm;26644;50.248;19.032;2023-02-01T13:25:12;56.94;53.10;63.73;;
76339;Laerm;26644;50.248;19.032;2023-02-01T13:28:26;58.01;53.87;69.78;;
76339;Laerm;26644;50.248;19.032;2023-02-01T13:32:02;57.12;53.83;61.82;;
76339;Laerm;26644;50.248;19.032;2023-02-01T13:35:51;57.06;54.02;62.58;;
76339;Laerm;26644;50.248;19.032;2023-02-01T13:39:46;57.68;54.51;64.08;;
76339;Laerm;26644;50.248;19.032;2023-02-01T13:42:58;57.55;54.20;74.79;;
76339;Laerm;26644;50.248;19.032;2023-02-01T13:46:10;58.84;54.37;72.26;;
76339;Laerm;26644;50.248;19.032;2023-02-01T13:49:26;59.67;55.35;78.39;;
76339;Laerm;26644;50.248;19.032;2023-02-01T13:52:42;57.46;53.02;65.51;;
76339;Laerm;26644;50.248;19.032;2023-02-01T13:55:58;60.96;56.13;75.14;;
76339;Laerm;26644;50.248;19.032;2023-02-01T13:59:49;60.75;55.15;82.23;;
76339;Laerm;26644;50.248;19.032;2023-02-01T14:03:14;58.93;54.72;68.26;;
76339;Laerm;26644;50.248;19.032;2023-02-01T14:06:43;59.40;55.90;70.77;;
76339;Laerm;26644;50.248;19.032;2023-02-01T14:09:51;58.05;54.94;70.73;;
76339;Laerm;26644;50.248;19.032;2023-02-01T14:13:11;58.40;54.54;74.73;;
76339;Laerm;26644;50.248;19.032;2023-02-01T14:16:17;57.44;54.10;64.63;;
76339;Laerm;26644;50.248;19.032;2023-02-01T14:19:26;56.79;53.14;61.75;;
76339;Laerm;26644;50.248;19.032;2023-02-01T14:22:34;57.54;54.42;72.02;;
76339;Laerm;26644;50.248;19.032;2023-02-01T14:25:44;57.94;54.89;71.83;;
76339;Laerm;26644;50.248;19.032;2023-02-01T14:29:03;58.69;55.17;64.64;;
76339;Laerm;26644;50.248;19.032;2023-02-01T14:32:21;58.54;55.33;79.82;;
76339;Laerm;26644;50.248;19.032;2023-02-01T14:35:27;58.50;55.04;73.38;;
76339;Laerm;26644;50.248;19.032;2023-02-01T14:38:37;57.22;54.31;66.98;;
76339;Laerm;26644;50.248;19.032;2023-02-01T14:41:47;57.83;54.18;69.33;;
76339;Laerm;26644;50.248;19.032;2023-02-01T14:45:47;57.41;54.00;65.70;;
76339;Laerm;26644;50.248;19.032;2023-02-01T14:48:54;56.64;53.50;70.14;;
76339;Laerm;26644;50.248;19.032;2023-02-01T14:52:09;57.09;52.67;73.09;;
76339;Laerm;26644;50.248;19.032;2023-02-01T14:55:24;57.91;54.30;77.58;;
76339;Laerm;26644;50.248;19.032;2023-02-01T14:58:42;58.45;55.65;69.53;;
76339;Laerm;26644;50.248;19.032;2023-02-01T15:01:55;57.58;54.51;68.16;;
76339;Laerm;26644;50.248;19.032;2023-02-01T15:05:02;58.63;54.81;71.39;;
76339;Laerm;26644;50.248;19.032;2023-02-01T15:08:24;57.99;54.71;64.76;;
76339;Laerm;26644;50.248;19.032;2023-02-01T15:11:31;58.42;55.58;71.90;;
76339;Laerm;26644;50.248;19.032;2023-02-01T15:14:41;58.84;55.84;68.51;;
76339;Laerm;26644;50.248;19.032;2023-02-01T15:17:55;58.20;54.85;79.16;;
76339;Laerm;26644;50.248;19.032;2023-02-01T15:21:03;58.39;55.44;67.89;;
76339;Laerm;26644;50.248;19.032;2023-02-01T15:24:17;58.64;55.95;73.98;;
76339;Laerm;26644;50.248;19.032;2023-02-01T15:27:25;58.81;54.18;63.29;;
76339;Laerm;26644;50.248;19.032;2023-02-01T15:30:36;58.14;54.71;63.64;;
76339;Laerm;26644;50.248;19.032;2023-02-01T15:33:57;58.43;55.14;66.60;;
76339;Laerm;26644;50.248;19.032;2023-02-01T15:37:05;58.14;55.54;61.81;;
76339;Laerm;26644;50.248;19.032;2023-02-01T15:40:21;58.53;54.93;64.20;;
76339;Laerm;26644;50.248;19.032;2023-02-01T15:43:30;57.41;54.64;67.32;;
76339;Laerm;26644;50.248;19.032;2023-02-01T15:46:45;57.32;54.18;69.02;;
76339;Laerm;26644;50.248;19.032;2023-02-01T15:49:55;57.80;54.68;69.26;;
76339;Laerm;26644;50.248;19.032;2023-02-01T15:53:02;57.39;54.07;63.33;;
76339;Laerm;26644;50.248;19.032;2023-02-01T15:56:11;57.36;53.82;67.95;;
76339;Laerm;26644;50.248;19.032;2023-02-01T15:59:21;57.42;53.77;68.26;;
76339;Laerm;26644;50.248;19.032;2023-02-01T16:02:36;57.71;54.20;64.95;;
76339;Laerm;26644;50.248;19.032;2023-02-01T16:05:44;58.23;53.91;66.42;;
76339;Laerm;26644;50.248;19.032;2023-02-01T16:08:55;58.08;54.30;64.37;;
76339;Laerm;26644;50.248;19.032;2023-02-01T16:12:03;57.59;54.36;64.04;;
76339;Laerm;26644;50.248;19.032;2023-02-01T16:15:09;57.98;54.58;63.64;;
76339;Laerm;26644;50.248;19.032;2023-02-01T16:18:17;57.40;53.90;62.42;;
76339;Laerm;26644;50.248;19.032;2023-02-01T16:21:24;57.02;52.65;60.94;;
76339;Laerm;26644;50.248;19.032;2023-02-01T16:24:29;56.30;52.32;71.21;;
76339;Laerm;26644;50.248;19.032;2023-02-01T16:27:35;56.88;53.59;65.64;;
76339;Laerm;26644;50.248;19.032;2023-02-01T16:30:40;57.08;53.33;71.61;;
76339;Laerm;26644;50.248;19.032;2023-02-01T16:33:51;56.59;53.20;67.76;;
76339;Laerm;26644;50.248;19.032;2023-02-01T16:36:57;55.88;52.11;62.10;;
76339;Laerm;26644;50.248;19.032;2023-02-01T16:40:03;55.63;52.01;65.50;;
76339;Laerm;26644;50.248;19.032;2023-02-01T16:43:14;55.70;52.31;64.15;;
76339;Laerm;26644;50.248;19.032;2023-02-01T16:46:25;56.07;52.15;67.47;;
76339;Laerm;26644;50.248;19.032;2023-02-01T16:49:34;57.20;52.78;64.15;;
76339;Laerm;26644;50.248;19.032;2023-02-01T16:52:44;56.47;53.62;61.75;;
76339;Laerm;26644;50.248;19.032;2023-02-01T16:55:50;56.38;52.20;69.81;;
76339;Laerm;26644;50.248;19.032;2023-02-01T16:58:56;57.12;54.05;67.81;;
76339;Laerm;26644;50.248;19.032;2023-02-01T17:02:01;57.23;53.65;66.35;;
76339;Laerm;26644;50.248;19.032;2023-02-01T17:05:10;57.47;54.02;61.65;;
76339;Laerm;26644;50.248;19.032;2023-02-01T17:08:21;57.19;53.50;64.36;;
76339;Laerm;26644;50.248;19.032;2023-02-01T17:11:28;57.31;53.61;62.81;;
76339;Laerm;26644;50.248;19.032;2023-02-01T17:14:39;56.75;53.35;62.58;;
76339;Laerm;26644;50.248;19.032;2023-02-01T17:17:45;56.40;52.73;64.29;;
76339;Laerm;26644;50.248;19.032;2023-02-01T17:20:58;56.60;52.69;62.35;;
76339;Laerm;26644;50.248;19.032;2023-02-01T17:24:05;57.08;53.27;66.18;;
76339;Laerm;26644;50.248;19.032;2023-02-01T17:27:10;56.96;52.80;61.53;;
76339;Laerm;26644;50.248;19.032;2023-02-01T17:30:17;56.44;52.91;60.01;;
76339;Laerm;26644;50.248;19.032;2023-02-01T17:33:27;56.04;52.26;61.23;;
76339;Laerm;26644;50.248;19.032;2023-02-01T17:36:37;56.93;53.59;62.25;;
76339;Laerm;26644;50.248;19.032;2023-02-01T17:39:43;56.17;52.54;63.24;;
76339;Laerm;26644;50.248;19.032;2023-02-01T17:43:01;55.61;51.45;63.35;;